createdAt,value
2016-07-14T00:00:14.891Z,15.37
2016-07-14T00:01:14.902Z,15.39
2016-07-14T00:02:14.959Z,15.37
2016-07-14T00:03:14.929Z,15.37
2016-07-14T00:04:14.918Z,15.36
2016-07-14T00:05:14.890Z,15.52
2016-07-14T00:06:14.927Z,15.37
2016-07-14T00:07:14.879Z,15.39
2016-07-14T00:08:15.129Z,15.29
2016-07-14T00:09:14.876Z,15.37
2016-07-14T00:10:18.313Z,15.35
2016-07-14T00:11:14.917Z,15.31
2016-07-14T00:12:14.972Z,15.36
2016-07-14T00:13:14.962Z,15.28
2016-07-14T00:14:14.868Z,15.35
2016-07-14T00:15:14.887Z,15.33
2016-07-14T00:16:14.919Z,15.39
2016-07-14T00:17:14.902Z,15.31
2016-07-14T00:18:14.913Z,15.27
2016-07-14T00:19:14.905Z,15.22
2016-07-14T00:20:14.913Z,15.36
2016-07-14T00:21:15.129Z,15.27
2016-07-14T00:22:14.944Z,15.22
2016-07-14T00:23:14.892Z,15.29
2016-07-14T00:24:14.922Z,15.18
2016-07-14T00:25:14.915Z,15.25
2016-07-14T00:26:14.915Z,15.25
2016-07-14T00:27:14.922Z,15.25
2016-07-14T00:28:14.933Z,15.15
2016-07-14T00:29:14.914Z,15.25
2016-07-14T00:30:14.924Z,15.19
2016-07-14T00:31:14.931Z,15.09
2016-07-14T00:32:14.872Z,15.07
2016-07-14T00:33:14.924Z,15.09
2016-07-14T00:34:14.931Z,14.92
2016-07-14T00:35:14.934Z,15.02
2016-07-14T00:36:14.913Z,15.06
2016-07-14T00:37:14.893Z,14.96
2016-07-14T00:38:14.918Z,14.91
2016-07-14T00:39:14.886Z,14.99
2016-07-14T00:40:14.889Z,15.04
2016-07-14T00:41:14.912Z,14.88
2016-07-14T00:53:32.593Z,14.62
2016-07-14T00:54:32.492Z,14.65
2016-07-14T00:55:32.522Z,14.62
2016-07-14T00:56:32.522Z,14.73
2016-07-14T00:57:32.527Z,14.73
2016-07-14T00:58:32.533Z,14.6
2016-07-14T00:59:32.478Z,14.69
2016-07-14T01:00:32.514Z,14.63
2016-07-14T01:01:32.507Z,14.48
2016-07-14T01:02:32.502Z,14.51
2016-07-14T01:03:32.497Z,14.44
2016-07-14T01:04:32.467Z,14.47
2016-07-14T01:05:32.490Z,14.41
2016-07-14T01:06:32.507Z,14.36
2016-07-14T01:07:37.246Z,14.43
2016-07-14T01:08:32.498Z,14.4
2016-07-14T01:09:32.521Z,14.44
2016-07-14T01:10:32.491Z,14.6
2016-07-14T01:11:32.511Z,14.43
2016-07-14T01:12:32.619Z,14.54
2016-07-14T01:13:32.504Z,14.51
2016-07-14T01:14:32.528Z,14.53
2016-07-14T01:15:32.514Z,14.55
2016-07-14T01:17:10.213Z,14.45
2016-07-14T01:17:32.549Z,14.41
2016-07-14T01:18:32.505Z,14.3
2016-07-14T01:19:32.522Z,14.26
2016-07-14T01:20:32.525Z,14.12
2016-07-14T01:21:32.550Z,14.18
2016-07-14T01:22:32.537Z,14.26
2016-07-14T01:23:32.524Z,14.32
2016-07-14T01:24:35.281Z,14.33
2016-07-14T01:25:32.490Z,14.25
2016-07-14T01:26:32.518Z,14.07
2016-07-14T01:27:33.761Z,14.1
2016-07-14T01:28:32.507Z,14.12
2016-07-14T01:29:32.546Z,14.12
2016-07-14T01:30:32.540Z,14.15
2016-07-14T01:31:32.520Z,14.26
2016-07-14T01:32:32.527Z,14.25
2016-07-14T01:33:32.533Z,14.2
2016-07-14T01:34:44.806Z,14.11
2016-07-14T01:35:32.623Z,14.03
2016-07-14T01:36:32.535Z,14
2016-07-14T01:37:32.572Z,14.14
2016-07-14T01:38:32.534Z,14.22
2016-07-14T01:39:32.523Z,14.2
2016-07-14T01:40:32.517Z,14.08
2016-07-14T01:41:32.549Z,14.07
2016-07-14T01:42:32.570Z,13.96
2016-07-14T01:43:32.590Z,13.99
2016-07-14T01:44:32.503Z,13.97
2016-07-14T01:45:32.522Z,13.92
2016-07-14T01:46:32.523Z,13.9
2016-07-14T01:47:32.557Z,13.86
2016-07-14T01:48:32.512Z,13.83
2016-07-14T01:49:32.576Z,13.87
2016-07-14T01:50:32.527Z,13.85
2016-07-14T01:51:32.517Z,13.87
2016-07-14T01:52:32.609Z,13.89
2016-07-14T01:53:32.599Z,13.79
2016-07-14T01:54:32.537Z,13.83
2016-07-14T01:55:32.525Z,13.92
2016-07-14T01:56:34.291Z,13.85
2016-07-14T01:57:32.686Z,13.81
2016-07-14T01:58:32.514Z,13.81
2016-07-14T01:59:32.516Z,13.79
2016-07-14T02:00:32.546Z,13.74
2016-07-14T02:01:32.537Z,13.78
2016-07-14T02:02:32.536Z,13.81
2016-07-14T02:03:32.542Z,13.71
2016-07-14T02:04:32.514Z,13.74
2016-07-14T02:05:32.522Z,13.7
2016-07-14T02:06:32.562Z,13.7
2016-07-14T02:07:32.550Z,13.77
2016-07-14T02:08:32.543Z,13.87
2016-07-14T02:09:32.498Z,13.87
2016-07-14T02:10:32.522Z,13.72
2016-07-14T02:11:32.555Z,13.83
2016-07-14T02:12:32.518Z,13.75
2016-07-14T02:13:32.513Z,13.7
2016-07-14T02:14:32.543Z,13.71
2016-07-14T02:15:32.559Z,13.78
2016-07-14T02:16:32.558Z,13.68
2016-07-14T02:17:32.533Z,13.79
2016-07-14T02:18:32.551Z,13.87
2016-07-14T02:19:32.533Z,13.78
2016-07-14T02:20:36.402Z,13.81
2016-07-14T02:21:32.517Z,13.77
2016-07-14T02:22:32.538Z,13.75
2016-07-14T02:23:32.539Z,13.65
2016-07-14T02:24:32.548Z,13.75
2016-07-14T02:25:32.555Z,13.83
2016-07-14T02:26:32.532Z,13.72
2016-07-14T02:27:32.577Z,13.7
2016-07-14T02:28:32.547Z,13.49
2016-07-14T02:29:32.565Z,13.53
2016-07-14T02:30:32.554Z,13.71
2016-07-14T02:31:32.517Z,13.7
2016-07-14T02:32:32.562Z,13.6
2016-07-14T02:33:32.540Z,13.59
2016-07-14T02:34:32.555Z,13.57
2016-07-14T02:35:32.537Z,13.52
2016-07-14T02:36:32.728Z,13.7
2016-07-14T02:37:32.573Z,13.63
2016-07-14T02:38:32.528Z,13.67
2016-07-14T02:39:32.536Z,13.68
2016-07-14T02:40:32.536Z,13.63
2016-07-14T02:41:32.565Z,13.59
2016-07-14T02:42:32.556Z,13.62
2016-07-14T02:43:32.520Z,13.56
2016-07-14T02:44:32.561Z,13.52
2016-07-14T02:45:32.556Z,13.46
2016-07-14T02:46:32.535Z,13.47
2016-07-14T02:47:32.565Z,13.47
2016-07-14T02:48:32.534Z,13.5
2016-07-14T02:49:32.513Z,13.62
2016-07-14T02:50:32.531Z,13.57
2016-07-14T02:51:32.572Z,13.53
2016-07-14T02:52:32.610Z,13.62
2016-07-14T02:53:32.552Z,13.62
2016-07-14T02:54:32.559Z,13.59
2016-07-14T02:55:32.591Z,13.6
2016-07-14T02:56:32.619Z,13.46
2016-07-14T02:57:32.547Z,13.28
2016-07-14T02:58:32.588Z,13.3
2016-07-14T02:59:32.540Z,13.44
2016-07-14T03:00:32.577Z,13.47
2016-07-14T03:01:32.524Z,13.44
2016-07-14T03:02:32.553Z,13.49
2016-07-14T03:03:32.524Z,13.53
2016-07-14T03:04:32.540Z,13.54
2016-07-14T03:05:32.572Z,13.39
2016-07-14T03:06:32.515Z,13.37
2016-07-14T03:07:32.606Z,13.47
2016-07-14T03:08:32.516Z,13.6
2016-07-14T03:09:32.544Z,13.72
2016-07-14T03:10:32.601Z,13.67
2016-07-14T03:22:50.056Z,13.38
2016-07-14T03:23:50.004Z,13.49
2016-07-14T03:24:50.120Z,13.44
2016-07-14T03:25:50.016Z,13.33
2016-07-14T03:26:50.478Z,13.3
2016-07-14T03:27:50.059Z,13.23
2016-07-14T03:28:50.001Z,13.27
2016-07-14T03:29:50.039Z,13.37
2016-07-14T03:30:50.028Z,13.28
2016-07-14T03:31:50.106Z,13.27
2016-07-14T03:32:50.056Z,13.27
2016-07-14T03:33:50.005Z,13.15
2016-07-14T03:34:50.034Z,13.2
2016-07-14T03:35:50.032Z,13.28
2016-07-14T03:36:50.021Z,13.35
2016-07-14T03:37:50.048Z,13.49
2016-07-14T03:38:50.056Z,13.38
2016-07-14T03:39:50.291Z,13.37
2016-07-14T03:40:50.032Z,13.41
2016-07-14T03:41:50.048Z,13.39
2016-07-14T03:42:50.049Z,13.38
2016-07-14T03:43:50.060Z,13.33
2016-07-14T03:44:50.500Z,13.39
2016-07-14T03:45:50.091Z,13.3
2016-07-14T03:46:50.067Z,13.35
2016-07-14T03:47:50.023Z,13.18
2016-07-14T03:48:50.019Z,13.25
2016-07-14T03:49:50.043Z,13.38
2016-07-14T03:50:50.895Z,13.31
2016-07-14T03:51:50.053Z,13.3
2016-07-14T03:52:50.024Z,13.3
2016-07-14T03:53:50.037Z,13.33
2016-07-14T03:54:50.005Z,13.35
2016-07-14T03:55:50.072Z,13.47
2016-07-14T03:56:50.075Z,13.46
2016-07-14T03:57:50.128Z,13.39
2016-07-14T03:58:50.057Z,13.35
2016-07-14T03:59:50.123Z,13.42
2016-07-14T04:00:50.031Z,13.31
2016-07-14T04:01:50.034Z,13.3
2016-07-14T04:02:50.035Z,13.33
2016-07-14T04:03:50.043Z,13.41
2016-07-14T04:04:50.058Z,13.37
2016-07-14T04:05:50.047Z,13.31
2016-07-14T04:06:50.029Z,13.42
2016-07-14T04:07:50.121Z,13.28
2016-07-14T04:08:50.033Z,13.37
2016-07-14T04:09:50.419Z,13.5
2016-07-14T04:10:50.058Z,13.39
2016-07-14T04:11:50.017Z,13.5
2016-07-14T04:12:50.107Z,13.37
2016-07-14T04:13:50.019Z,13.37
2016-07-14T04:14:50.122Z,13.31
2016-07-14T04:15:50.091Z,13.25
2016-07-14T04:16:50.048Z,13.16
2016-07-14T04:17:50.051Z,13.28
2016-07-14T04:18:50.065Z,13.18
2016-07-14T04:19:50.057Z,13.28
2016-07-14T04:20:50.083Z,13.47
2016-07-14T04:21:50.117Z,13.41
2016-07-14T04:22:50.049Z,13.54
2016-07-14T04:23:50.068Z,13.6
2016-07-14T04:24:51.953Z,13.71
2016-07-14T04:25:50.059Z,13.53
2016-07-14T04:26:50.060Z,13.5
2016-07-14T04:27:50.089Z,13.65
2016-07-14T04:28:50.136Z,13.67
2016-07-14T04:29:50.174Z,13.57
2016-07-14T04:30:50.111Z,13.67
2016-07-14T04:31:50.118Z,13.68
2016-07-14T04:32:50.039Z,13.86
2016-07-14T04:33:51.402Z,14.07
2016-07-14T04:34:50.098Z,14.37
2016-07-14T04:35:50.056Z,14.86
2016-07-14T04:36:50.060Z,15.55
2016-07-14T04:37:50.052Z,16.04
2016-07-14T04:38:50.048Z,16.53
2016-07-14T04:39:50.098Z,16.99
2016-07-14T04:40:50.036Z,17.36
2016-07-14T04:41:50.311Z,17.68
2016-07-14T04:42:50.096Z,17.78
2016-07-14T04:43:50.063Z,18.13
2016-07-14T04:44:50.165Z,18.29
2016-07-14T04:45:50.090Z,18.49
2016-07-14T04:46:50.352Z,18.52
2016-07-14T04:47:50.437Z,18.73
2016-07-14T04:48:50.085Z,18.86
2016-07-14T04:49:50.098Z,18.88
2016-07-14T04:50:50.072Z,19.16
2016-07-14T04:51:50.628Z,19.24
2016-07-14T04:52:56.678Z,19.27
2016-07-14T04:53:50.088Z,19.44
2016-07-14T04:54:50.078Z,19.34
2016-07-14T04:55:50.078Z,19.3
2016-07-14T04:57:03.661Z,19.58
2016-07-14T04:57:50.053Z,19.4
2016-07-14T04:58:50.412Z,19.3
2016-07-14T04:59:50.912Z,19.24
2016-07-14T05:00:50.144Z,19.16
2016-07-14T05:01:51.250Z,19
2016-07-14T05:02:50.082Z,19.41
2016-07-14T05:04:50.069Z,19.92
2016-07-14T05:05:53.651Z,20.26
2016-07-14T05:06:50.350Z,20.32
2016-07-14T05:07:50.522Z,20.4
2016-07-14T05:08:50.107Z,20.19
2016-07-14T05:09:50.112Z,20.69
2016-07-14T05:10:50.070Z,20.34
2016-07-14T05:11:50.102Z,20.36
2016-07-14T05:12:50.559Z,20.5
2016-07-14T05:13:50.789Z,20.87
2016-07-14T05:14:50.098Z,20.72
2016-07-14T05:15:50.093Z,21.06
2016-07-14T05:16:50.099Z,21.25
2016-07-14T05:17:50.077Z,20.99
2016-07-14T05:18:50.097Z,21.2
2016-07-14T05:19:50.504Z,21.18
2016-07-14T05:20:50.095Z,21.29
2016-07-14T05:21:50.077Z,21.2
2016-07-14T05:22:57.627Z,21.14
2016-07-14T05:23:50.127Z,21.3
2016-07-14T05:24:50.075Z,21.27
2016-07-14T05:25:50.079Z,20.97
2016-07-14T05:26:50.048Z,20.77
2016-07-14T05:27:50.071Z,20.69
2016-07-14T05:28:50.147Z,20.28
2016-07-14T05:29:50.180Z,19.96
2016-07-14T05:30:51.460Z,19.81
2016-07-14T05:31:50.051Z,19.51
2016-07-14T05:32:50.264Z,19.37
2016-07-14T05:33:50.090Z,19.58
2016-07-14T05:34:50.261Z,19.95
2016-07-14T05:35:50.099Z,19.89
2016-07-14T05:36:50.192Z,19.86
2016-07-14T05:37:50.123Z,19.76
2016-07-14T05:38:50.073Z,19.84
2016-07-14T05:39:50.152Z,20.19
2016-07-14T05:40:53.365Z,20.5
2016-07-14T05:42:03.981Z,21.06
2016-07-14T05:42:50.082Z,21.45
2016-07-14T05:43:50.408Z,21.76
2016-07-14T05:44:50.181Z,21.85
2016-07-14T05:45:50.121Z,21.7
2016-07-14T05:46:50.088Z,22.36
2016-07-14T05:48:02.857Z,22.33
2016-07-14T05:48:50.259Z,22.2
2016-07-14T05:49:51.355Z,22.18
2016-07-14T05:50:50.096Z,22.28
2016-07-14T05:51:50.096Z,22.55
2016-07-14T05:52:50.448Z,22.73
2016-07-14T05:53:50.169Z,22.35
2016-07-14T05:54:51.208Z,22.2
2016-07-14T05:55:50.783Z,21.07
2016-07-14T05:56:50.958Z,20.36
2016-07-14T05:57:50.169Z,20.21
2016-07-14T05:58:50.405Z,20.19
2016-07-14T05:59:50.122Z,20.34
2016-07-14T06:00:50.146Z,20.13
2016-07-14T06:01:50.145Z,20.34
2016-07-14T06:02:50.145Z,20.06
2016-07-14T06:03:50.212Z,19.29
2016-07-14T06:04:53.036Z,18.9
2016-07-14T06:05:50.118Z,18.55
2016-07-14T06:06:50.948Z,18.08
2016-07-14T06:07:50.110Z,17.83
2016-07-14T06:08:50.161Z,17.56
2016-07-14T06:09:50.147Z,17.15
2016-07-14T06:10:50.658Z,16.83
2016-07-14T06:11:50.245Z,16.56
2016-07-14T06:12:50.083Z,16.64
2016-07-14T06:13:50.549Z,16.66
2016-07-14T06:14:50.165Z,16.61
2016-07-14T06:15:50.242Z,16.56
2016-07-14T06:16:52.860Z,16.64
2016-07-14T06:17:50.197Z,16.6
2016-07-14T06:18:50.188Z,16.47
2016-07-14T06:20:14.715Z,16.53
2016-07-14T06:20:50.140Z,16.43
2016-07-14T06:21:50.154Z,16.46
2016-07-14T06:22:52.043Z,16.47
2016-07-14T06:23:50.464Z,16.42
2016-07-14T06:24:53.014Z,16.46
2016-07-14T06:25:50.214Z,16.47
2016-07-14T06:26:50.728Z,16.39
2016-07-14T06:27:50.117Z,16.39
2016-07-14T06:28:50.110Z,16.43
2016-07-14T06:29:50.106Z,16.56
2016-07-14T06:30:50.155Z,16.53
2016-07-14T06:31:51.225Z,16.54
2016-07-14T06:32:50.082Z,16.6
2016-07-14T06:33:50.135Z,16.72
2016-07-14T06:34:50.124Z,16.89
2016-07-14T06:35:50.300Z,16.93
2016-07-14T06:36:52.567Z,17.11
2016-07-14T06:37:50.114Z,17.26
2016-07-14T06:38:50.122Z,17.3
2016-07-14T06:39:50.192Z,17.38
2016-07-14T06:40:50.249Z,17.51
2016-07-14T06:41:50.174Z,17.67
2016-07-14T06:42:50.141Z,17.65
2016-07-14T06:43:50.207Z,17.79
2016-07-14T06:44:50.390Z,17.87
2016-07-14T06:45:50.201Z,17.92
2016-07-14T06:46:52.368Z,17.71
2016-07-14T06:47:50.191Z,17.9
2016-07-14T06:48:50.122Z,18.05
2016-07-14T06:50:00.685Z,18.26
2016-07-14T06:50:50.142Z,18.26
2016-07-14T06:51:50.105Z,18.2
2016-07-14T06:52:50.127Z,18.31
2016-07-14T06:53:50.133Z,18.07
2016-07-14T06:54:50.198Z,18.13
2016-07-14T06:55:50.171Z,18.25
2016-07-14T06:56:50.125Z,18.28
2016-07-14T06:57:50.160Z,18.41
2016-07-14T06:58:50.111Z,18.35
2016-07-14T06:59:50.301Z,18.41
2016-07-14T07:00:50.134Z,18.52
2016-07-14T07:01:58.599Z,18.52
2016-07-14T07:02:52.032Z,18.47
2016-07-14T07:03:51.227Z,18.45
2016-07-14T07:04:50.396Z,18.2
2016-07-14T07:05:50.352Z,18.04
2016-07-14T07:06:50.360Z,18.03
2016-07-14T07:07:50.298Z,18.08
2016-07-14T07:08:50.332Z,17.98
2016-07-14T07:09:55.110Z,17.95
2016-07-14T07:10:50.140Z,18.01
2016-07-14T07:12:20.430Z,17.83
2016-07-14T07:12:50.106Z,17.78
2016-07-14T07:13:50.179Z,17.86
2016-07-14T07:14:54.498Z,17.9
2016-07-14T07:15:51.005Z,17.89
2016-07-14T07:16:50.116Z,17.72
2016-07-14T07:17:54.336Z,17.54
2016-07-14T07:18:50.480Z,17.57
2016-07-14T07:19:52.784Z,17.59
2016-07-14T07:20:50.308Z,17.56
2016-07-14T07:22:02.867Z,17.72
2016-07-14T07:22:50.147Z,17.68
2016-07-14T07:23:50.162Z,17.9
2016-07-14T07:24:50.126Z,18.03
2016-07-14T07:25:51.378Z,18.01
2016-07-14T07:26:50.128Z,17.89
2016-07-14T07:27:50.497Z,17.86
2016-07-14T07:30:09.980Z,17.89
2016-07-14T07:30:30.405Z,17.85
2016-07-14T07:31:27.111Z,17.92
2016-07-14T07:32:27.156Z,17.98
2016-07-14T07:33:29.993Z,18.07
2016-07-14T07:34:29.911Z,18.04
2016-07-14T07:35:27.124Z,17.89
2016-07-14T07:36:27.140Z,18.05
2016-07-14T07:37:27.762Z,18.13
2016-07-14T07:38:27.115Z,18.08
2016-07-14T07:39:27.130Z,17.98
2016-07-14T07:40:28.632Z,17.92
2016-07-14T07:41:27.749Z,17.87
2016-07-14T07:42:27.103Z,17.86
2016-07-14T07:43:48.255Z,17.89
2016-07-14T07:45:43.716Z,17.8
2016-07-14T07:46:42.947Z,17.68
2016-07-14T07:47:43.001Z,17.65
2016-07-14T07:48:48.923Z,17.8
2016-07-14T07:50:44.407Z,18.1
2016-07-14T07:51:42.221Z,18.55
2016-07-14T07:52:50.604Z,19.18
2016-07-14T07:53:42.193Z,19.89
2016-07-14T07:54:42.186Z,20.16
2016-07-14T07:55:42.214Z,21.37
2016-07-14T07:56:42.192Z,22.04
2016-07-14T07:57:42.213Z,22.26
2016-07-14T07:58:43.283Z,22.14
2016-07-14T07:59:45.757Z,22.78
2016-07-14T08:00:46.372Z,23.63
2016-07-14T08:01:45.069Z,24.23
2016-07-14T08:02:49.884Z,24.76
2016-07-14T08:03:42.213Z,24.17
2016-07-14T08:04:42.167Z,23.71
2016-07-14T08:05:42.221Z,22.83
2016-07-14T08:06:42.176Z,22.47
2016-07-14T08:07:48.268Z,21.62
2016-07-14T08:08:51.958Z,21.02
2016-07-14T08:09:49.375Z,20.75
2016-07-14T08:11:12.488Z,20.6
2016-07-14T08:11:42.194Z,20.47
2016-07-14T08:12:43.970Z,20.1
2016-07-14T08:13:42.210Z,19.71
2016-07-14T08:14:45.794Z,19.36
2016-07-14T08:15:42.237Z,19.14
2016-07-14T08:16:42.223Z,18.9
2016-07-14T08:17:42.292Z,19.88
2016-07-14T08:18:44.473Z,21.29
2016-07-14T08:19:50.858Z,22.41
2016-07-14T08:21:01.081Z,22.78
2016-07-14T08:21:45.696Z,23.05
2016-07-14T08:22:42.473Z,23.76
2016-07-14T08:23:42.275Z,24.02
2016-07-14T08:24:42.201Z,24.35
2016-07-14T08:25:42.818Z,24.43
2016-07-14T08:26:42.594Z,25.08
2016-07-14T08:27:42.213Z,25.18
2016-07-14T08:28:43.208Z,24.26
2016-07-14T08:29:42.203Z,23.24
2016-07-14T08:30:42.188Z,23.88
2016-07-14T08:31:45.904Z,24.81
2016-07-14T08:32:46.258Z,25.54
2016-07-14T08:33:42.395Z,25.46
2016-07-14T08:34:42.272Z,25.44
2016-07-14T08:35:50.963Z,25.51
2016-07-14T08:36:49.932Z,26.45
2016-07-14T08:37:42.259Z,25.77
2016-07-14T08:38:42.211Z,24.86
2016-07-14T08:39:58.978Z,23.13
2016-07-14T08:40:42.355Z,22.43
2016-07-14T08:41:45.736Z,21.96
2016-07-14T08:42:50.476Z,21.58
2016-07-14T08:43:46.493Z,20.95
2016-07-14T08:44:51.913Z,20.62
2016-07-14T08:45:51.827Z,20.51
2016-07-14T08:47:03.866Z,20.59
2016-07-14T08:47:52.286Z,20.51
2016-07-14T08:48:51.866Z,20.37
2016-07-14T08:49:52.095Z,20.21
2016-07-14T08:50:51.862Z,19.84
2016-07-14T08:51:51.848Z,19.66
2016-07-14T08:52:51.795Z,19.67
2016-07-14T08:53:56.212Z,19.56
2016-07-14T08:54:52.080Z,19.4
2016-07-14T08:55:51.823Z,19.3
2016-07-14T08:56:53.646Z,19.47
2016-07-14T08:57:51.884Z,19.27
2016-07-14T08:58:51.852Z,19.24
2016-07-14T08:59:52.203Z,19.37
2016-07-14T09:00:51.929Z,19.39
2016-07-14T09:01:51.851Z,19.86
2016-07-14T09:02:55.199Z,19.89
2016-07-14T09:03:51.815Z,20.13
2016-07-14T09:05:14.055Z,20.77
2016-07-14T09:05:51.890Z,20.85
2016-07-14T09:06:52.401Z,20.65
2016-07-14T09:07:51.851Z,20.36
2016-07-14T09:08:56.225Z,19.77
2016-07-14T09:10:09.181Z,19.24
2016-07-14T09:10:52.763Z,18.99
2016-07-14T09:11:54.754Z,18.8
2016-07-14T09:13:43.309Z,18.41
2016-07-14T09:14:00.367Z,18.38
2016-07-14T09:15:05.473Z,18.41
2016-07-14T09:16:00.330Z,18.19
2016-07-14T09:17:08.887Z,18.1
2016-07-14T09:18:02.450Z,18.23
2016-07-14T09:19:00.356Z,18.73
2016-07-14T09:29:21.448Z,20.26
2016-07-14T09:29:38.604Z,19.58
2016-07-14T09:42:39.471Z,22.91
2016-07-14T09:43:04.216Z,23.41
2016-07-14T09:43:57.654Z,24.16
2016-07-14T09:48:51.796Z,23.96
2016-07-14T09:49:26.042Z,23.13
2016-07-14T09:50:31.565Z,23.66
2016-07-14T09:52:01.443Z,23.69
2016-07-14T09:52:38.644Z,24.03
2016-07-14T09:54:47.690Z,23.69
2016-07-14T09:55:13.386Z,23.54
2016-07-14T09:56:11.286Z,22.93
2016-07-14T09:57:36.574Z,21.66
2016-07-14T09:58:12.793Z,21.37
2016-07-14T09:59:19.397Z,20.65
2016-07-14T10:00:11.721Z,20.5
2016-07-14T10:01:13.584Z,20.28
2016-07-14T10:02:32.049Z,19.86
2016-07-14T10:03:11.283Z,19.92
2016-07-14T10:04:11.295Z,19.94
2016-07-14T10:05:31.135Z,19.71
2016-07-14T10:07:49.054Z,20.13
2016-07-14T10:08:30.699Z,20.84
2016-07-14T10:11:46.446Z,23.65
2016-07-14T10:12:17.506Z,24.24
2016-07-14T10:13:08.753Z,24.84
2016-07-14T10:14:04.895Z,25.06
2016-07-14T10:15:05.053Z,25.28
2016-07-14T10:16:24.439Z,25.01
2016-07-14T10:18:36.578Z,22.43
2016-07-14T10:18:58.872Z,22.23
2016-07-14T10:20:42.727Z,21.76
2016-07-14T10:21:12.414Z,21.48
2016-07-14T10:22:00.625Z,21.11
2016-07-14T10:23:00.973Z,21.06
2016-07-14T10:24:01.658Z,20.81
2016-07-14T10:25:02.331Z,20.62
2016-07-14T10:26:00.729Z,20.4
2016-07-14T10:27:00.685Z,20.55
2016-07-14T10:28:00.664Z,20.31
2016-07-14T10:29:00.700Z,20.31
2016-07-14T10:30:00.687Z,20.13
2016-07-14T10:31:00.916Z,20.31
2016-07-14T10:32:00.693Z,20.43
2016-07-14T10:33:00.719Z,20.66
2016-07-14T10:34:00.848Z,20.82
2016-07-14T10:35:00.664Z,20.88
2016-07-14T10:36:01.489Z,20.81
2016-07-14T10:37:00.764Z,20.77
2016-07-14T10:38:01.504Z,20.72
2016-07-14T10:39:00.688Z,20.47
2016-07-14T10:40:00.707Z,20.14
2016-07-14T10:41:06.004Z,19.85
2016-07-14T10:42:03.771Z,19.56
2016-07-14T10:43:04.442Z,19.4
2016-07-14T10:46:26.799Z,18.86
2016-07-14T10:46:48.398Z,18.83
2016-07-14T10:47:51.653Z,18.52
2016-07-14T10:48:46.157Z,18.35
2016-07-14T10:49:46.293Z,18.26
2016-07-14T10:50:46.159Z,17.98
2016-07-14T10:51:46.235Z,18.01
2016-07-14T10:52:46.153Z,18.05
2016-07-14T10:53:57.016Z,17.95
2016-07-14T10:54:46.903Z,17.89
2016-07-14T10:55:46.162Z,17.85
2016-07-14T10:56:50.013Z,17.9
2016-07-14T10:57:46.191Z,17.9
2016-07-14T10:58:56.791Z,17.86
2016-07-14T11:00:06.560Z,17.97
2016-07-14T11:01:20.707Z,17.95
2016-07-14T11:01:48.960Z,18.01
2016-07-14T11:02:49.057Z,18.28
2016-07-14T11:03:49.149Z,18.23
2016-07-14T11:04:49.203Z,18.58
2016-07-14T11:05:49.482Z,19.11
2016-07-14T11:06:48.924Z,20.14
2016-07-14T11:07:48.976Z,21.35
2016-07-14T11:08:49.711Z,22.59
2016-07-14T11:09:49.011Z,23.56
2016-07-14T11:11:37.643Z,24.02
2016-07-14T11:12:10.990Z,24.65
2016-07-14T11:13:30.042Z,23.66
2016-07-14T11:14:14.014Z,23.08
2016-07-14T11:15:11.202Z,22.54
2016-07-14T11:16:45.768Z,21.77
2016-07-14T11:17:41.342Z,21.52
2016-07-14T11:19:21.226Z,20.63
2016-07-14T11:19:39.805Z,20.55
2016-07-14T11:21:35.565Z,20.21
2016-07-14T11:22:10.949Z,19.94
2016-07-14T11:23:22.533Z,19.89
2016-07-14T11:24:13.911Z,20.16
2016-07-14T11:27:42.264Z,20.72
2016-07-14T11:30:22.043Z,21.79
2016-07-14T11:32:30.329Z,23.46
2016-07-14T11:33:40.255Z,24.18
2016-07-14T11:34:47.860Z,24.76
2016-07-14T11:35:26.253Z,24.86
2016-07-14T11:36:39.094Z,25.22
2016-07-14T11:37:29.902Z,25.38
2016-07-14T11:38:25.211Z,25.63
2016-07-14T11:41:03.553Z,25.99
2016-07-14T11:42:46.972Z,25.7
2016-07-14T11:43:42.160Z,25.14
2016-07-14T11:44:42.157Z,25.54
2016-07-14T11:57:10.998Z,20.28
2016-07-14T11:58:47.080Z,20.13
2016-07-14T11:59:22.012Z,19.99
2016-07-14T12:00:08.374Z,19.89
2016-07-14T12:01:30.158Z,19.66
2016-07-14T12:03:10.276Z,20.25
2016-07-14T12:08:01.430Z,21.02
2016-07-14T12:08:29.764Z,21.35
2016-07-14T12:09:30.032Z,22.06
2016-07-14T12:10:30.906Z,22.33
2016-07-14T12:13:47.547Z,22.68
2016-07-14T12:14:50.640Z,22.36
2016-07-14T12:15:50.357Z,22.06
2016-07-14T12:17:21.904Z,22.32
2016-07-14T12:17:46.800Z,22.18
2016-07-14T12:18:51.195Z,21.92
2016-07-14T12:21:08.324Z,20.84
2016-07-14T12:23:16.260Z,20.31
2016-07-14T12:24:03.097Z,20.39
2016-07-14T12:25:03.119Z,20.32
2016-07-14T12:27:57.908Z,20.67
2016-07-14T12:28:21.158Z,20.66
2016-07-14T12:29:20.079Z,21.39
2016-07-14T12:30:26.184Z,21.66
2016-07-14T12:31:23.723Z,21.75
2016-07-14T12:32:20.443Z,21.72
2016-07-14T12:34:49.718Z,22.54
2016-07-14T12:35:50.659Z,22.96
2016-07-14T12:36:50.994Z,22.83
2016-07-14T12:37:49.737Z,22.51
2016-07-14T12:39:01.051Z,22.55
2016-07-14T12:39:51.181Z,22.93
2016-07-14T12:40:52.282Z,23.08
2016-07-14T12:41:54.722Z,23.34
2016-07-14T12:42:53.777Z,23.55
2016-07-14T12:44:03.700Z,23.76
2016-07-14T12:44:49.716Z,24.17
2016-07-14T12:45:49.756Z,24.2
2016-07-14T12:47:08.341Z,23.48
2016-07-14T12:48:04.587Z,24.02
2016-07-14T12:49:15.903Z,24.8
2016-07-14T12:49:50.601Z,25.08
2016-07-14T12:50:49.795Z,24.78
2016-07-14T12:52:54.600Z,23.13
2016-07-14T12:53:52.703Z,22.72
2016-07-14T12:54:50.755Z,22.35
2016-07-14T12:56:07.498Z,21.75
2016-07-14T12:57:34.222Z,21.48
2016-07-14T12:57:51.899Z,21.61
2016-07-14T12:59:04.421Z,22.26
2016-07-14T12:59:54.965Z,22.25
2016-07-14T13:00:56.950Z,22.26
2016-07-14T13:02:58.258Z,21.76
2016-07-14T13:03:53.336Z,21.73
2016-07-14T13:04:43.873Z,21.5
2016-07-14T13:14:56.371Z,21.48
2016-07-14T13:15:56.346Z,21.77
2016-07-14T13:17:03.637Z,21.98
2016-07-14T13:18:00.191Z,22.32
2016-07-14T13:18:57.918Z,22.55
2016-07-14T13:21:48.727Z,22.75
2016-07-14T13:24:49.170Z,22.7
2016-07-14T13:26:44.928Z,22.25
2016-07-14T13:27:44.874Z,22.14
2016-07-14T13:28:45.793Z,22.3
2016-07-14T13:29:44.889Z,22.93
2016-07-14T13:39:04.566Z,24.39
2016-07-14T13:40:21.567Z,23.99
2016-07-14T13:41:06.173Z,23.63
2016-07-14T13:42:04.066Z,23.5
2016-07-14T13:43:04.215Z,23.5
2016-07-14T13:44:51.260Z,23.21
2016-07-14T13:50:31.104Z,23.69
2016-07-14T13:50:48.379Z,23.62
2016-07-14T13:55:04.079Z,23.81
2016-07-14T13:55:21.246Z,23.78
2016-07-14T13:56:22.784Z,23.36
2016-07-14T13:57:21.452Z,23.24
2016-07-14T13:58:22.171Z,23.56
2016-07-14T13:59:21.208Z,23.71
2016-07-14T14:00:29.362Z,24.11
2016-07-14T14:01:21.374Z,23.95
2016-07-14T14:02:58.374Z,23.62
2016-07-14T14:03:23.000Z,23.62
2016-07-14T14:05:27.058Z,23.34
2016-07-14T14:10:03.487Z,21.73
2016-07-14T14:16:26.884Z,21.85
2016-07-14T14:16:44.168Z,21.8
2016-07-14T14:19:07.252Z,21.64
2016-07-14T14:19:49.439Z,21.82
2016-07-14T14:20:49.404Z,21.93
2016-07-14T14:21:49.398Z,21.96
2016-07-14T14:22:49.694Z,21.91
2016-07-14T14:23:49.408Z,21.92
2016-07-14T14:26:03.638Z,21.7
2016-07-14T14:26:21.015Z,21.76
2016-07-14T14:27:38.594Z,21.75
2016-07-14T14:28:20.821Z,21.72
2016-07-14T14:30:13.042Z,21.52
2016-07-14T14:30:32.125Z,21.45
2016-07-14T14:31:30.266Z,21.33
2016-07-14T14:32:30.207Z,21.3
2016-07-14T14:33:39.403Z,21.48
2016-07-14T14:34:30.939Z,21.21
2016-07-14T14:35:47.347Z,21.18
2016-07-14T14:38:19.094Z,21.2
2016-07-14T14:39:26.312Z,21.29
2016-07-14T14:40:33.997Z,21.21
2016-07-14T14:42:00.338Z,21.37
2016-07-14T14:42:46.917Z,21.39
2016-07-14T14:43:31.726Z,21.29
2016-07-14T14:44:31.637Z,21.37
2016-07-14T14:45:33.494Z,21.33
2016-07-14T14:46:33.930Z,21.2
2016-07-14T14:48:03.457Z,21.09
2016-07-14T14:49:04.200Z,20.85
2016-07-14T14:50:08.335Z,20.75
2016-07-14T14:51:07.108Z,20.66
2016-07-14T14:52:29.803Z,20.62
2016-07-14T14:53:16.197Z,20.31
2016-07-14T14:54:06.767Z,20.4
2016-07-14T14:55:08.482Z,20.41
2016-07-14T14:56:04.750Z,20.4
2016-07-14T14:57:07.226Z,20.25
2016-07-14T14:58:17.313Z,20.06
2016-07-14T14:59:04.757Z,20.16
2016-07-14T15:00:05.638Z,19.96
2016-07-14T15:02:18.816Z,19.86
2016-07-14T15:03:02.330Z,19.81
2016-07-14T15:04:07.706Z,19.74
2016-07-14T15:05:05.046Z,19.64
2016-07-14T15:06:00.810Z,19.51
2016-07-14T15:07:10.691Z,19.55
2016-07-14T15:08:04.996Z,19.69
2016-07-14T15:09:01.301Z,19.7
2016-07-14T15:10:05.298Z,19.82